sensor_id;sensor_type;location;lat;lon;timestamp;P1;durP1;ratioP1;P2;durP2;ratioP2
27213;SDS011;14723;55.814;37.460;2023-07-30T00:02:55;24.02;;;14.55;;
27213;SDS011;14723;55.814;37.460;2023-07-30T00:06:01;29.15;;;18.95;;
27213;SDS011;14723;55.814;37.460;2023-07-30T00:09:06;23.75;;;16.63;;
27213;SDS011;14723;55.814;37.460;2023-07-30T00:12:14;27.05;;;16.80;;
27213;SDS011;14723;55.814;37.460;2023-07-30T00:15:19;26.35;;;14.68;;
27213;SDS011;14723;55.814;37.460;2023-07-30T00:18:25;23.30;;;14.70;;
27213;SDS011;14723;55.814;37.460;2023-07-30T00:21:30;27.70;;;13.93;;
27213;SDS011;14723;55.814;37.460;2023-07-30T00:24:36;22.15;;;14.13;;
27213;SDS011;14723;55.814;37.460;2023-07-30T00:27:44;24.55;;;14.00;;
27213;SDS011;14723;55.814;37.460;2023-07-30T00:30:50;28.70;;;14.30;;
27213;SDS011;14723;55.814;37.460;2023-07-30T00:33:55;23.90;;;12.35;;
27213;SDS011;14723;55.814;37.460;2023-07-30T00:37:01;21.95;;;12.15;;
27213;SDS011;14723;55.814;37.460;2023-07-30T00:40:07;21.20;;;13.02;;
27213;SDS011;14723;55.814;37.460;2023-07-30T00:43:15;19.08;;;12.63;;
27213;SDS011;14723;55.814;37.460;2023-07-30T00:49:25;24.45;;;12.35;;
27213;SDS011;14723;55.814;37.460;2023-07-30T00:52:31;21.60;;;12.05;;
27213;SDS011;14723;55.814;37.460;2023-07-30T00:55:37;18.83;;;11.82;;
27213;SDS011;14723;55.814;37.460;2023-07-30T00:58:45;15.63;;;11.52;;
27213;SDS011;14723;55.814;37.460;2023-07-30T01:01:52;21.58;;;11.55;;
27213;SDS011;14723;55.814;37.460;2023-07-30T01:04:58;19.77;;;10.95;;
27213;SDS011;14723;55.814;37.460;2023-07-30T01:08:08;20.48;;;13.15;;
27213;SDS011;14723;55.814;37.460;2023-07-30T01:11:17;19.88;;;12.25;;
27213;SDS011;14723;55.814;37.460;2023-07-30T01:14:25;20.30;;;13.50;;
27213;SDS011;14723;55.814;37.460;2023-07-30T01:17:31;18.00;;;13.30;;
27213;SDS011;14723;55.814;37.460;2023-07-30T01:20:36;23.27;;;13.48;;
27213;SDS011;14723;55.814;37.460;2023-07-30T01:23:44;20.67;;;12.82;;
27213;SDS011;14723;55.814;37.460;2023-07-30T01:26:51;20.60;;;12.30;;
27213;SDS011;14723;55.814;37.460;2023-07-30T01:30:00;20.30;;;12.70;;
27213;SDS011;14723;55.814;37.460;2023-07-30T01:33:09;20.88;;;12.00;;
27213;SDS011;14723;55.814;37.460;2023-07-30T01:36:15;20.52;;;12.20;;
27213;SDS011;14723;55.814;37.460;2023-07-30T01:39:23;20.20;;;11.38;;
27213;SDS011;14723;55.814;37.460;2023-07-30T01:42:29;19.73;;;12.82;;
27213;SDS011;14723;55.814;37.460;2023-07-30T01:45:34;19.35;;;11.63;;
27213;SDS011;14723;55.814;37.460;2023-07-30T01:48:40;16.80;;;10.88;;
27213;SDS011;14723;55.814;37.460;2023-07-30T01:51:46;18.02;;;11.38;;
27213;SDS011;14723;55.814;37.460;2023-07-30T01:54:54;14.48;;;10.98;;
27213;SDS011;14723;55.814;37.460;2023-07-30T01:58:01;16.77;;;10.40;;
27213;SDS011;14723;55.814;37.460;2023-07-30T02:01:06;18.13;;;10.73;;
27213;SDS011;14723;55.814;37.460;2023-07-30T02:04:11;16.17;;;10.75;;
27213;SDS011;14723;55.814;37.460;2023-07-30T02:07:17;15.00;;;11.15;;
27213;SDS011;14723;55.814;37.460;2023-07-30T02:10:26;12.38;;;9.43;;
27213;SDS011;14723;55.814;37.460;2023-07-30T02:13:31;19.45;;;10.15;;
27213;SDS011;14723;55.814;37.460;2023-07-30T02:16:36;17.83;;;11.02;;
27213;SDS011;14723;55.814;37.460;2023-07-30T02:19:42;15.95;;;9.98;;
27213;SDS011;14723;55.814;37.460;2023-07-30T02:22:47;13.20;;;9.48;;
27213;SDS011;14723;55.814;37.460;2023-07-30T02:25:55;18.42;;;10.48;;
27213;SDS011;14723;55.814;37.460;2023-07-30T02:29:01;12.25;;;9.25;;
27213;SDS011;14723;55.814;37.460;2023-07-30T02:32:06;15.05;;;9.30;;
27213;SDS011;14723;55.814;37.460;2023-07-30T02:35:12;10.95;;;9.02;;
27213;SDS011;14723;55.814;37.460;2023-07-30T02:38:18;16.38;;;9.32;;
27213;SDS011;14723;55.814;37.460;2023-07-30T02:41:26;12.73;;;9.45;;
27213;SDS011;14723;55.814;37.460;2023-07-30T02:44:32;14.55;;;9.70;;
27213;SDS011;14723;55.814;37.460;2023-07-30T02:47:37;17.05;;;9.65;;
27213;SDS011;14723;55.814;37.460;2023-07-30T02:50:43;12.43;;;8.82;;
27213;SDS011;14723;55.814;37.460;2023-07-30T02:53:49;17.45;;;8.95;;
27213;SDS011;14723;55.814;37.460;2023-07-30T02:56:59;12.75;;;8.68;;
27213;SDS011;14723;55.814;37.460;2023-07-30T03:00:05;10.98;;;8.13;;
27213;SDS011;14723;55.814;37.460;2023-07-30T03:03:11;10.98;;;8.30;;
27213;SDS011;14723;55.814;37.460;2023-07-30T03:06:16;16.25;;;8.50;;
27213;SDS011;14723;55.814;37.460;2023-07-30T03:09:22;12.82;;;8.60;;
27213;SDS011;14723;55.814;37.460;2023-07-30T03:12:30;11.35;;;7.78;;
27213;SDS011;14723;55.814;37.460;2023-07-30T03:15:35;16.10;;;8.25;;
27213;SDS011;14723;55.814;37.460;2023-07-30T03:18:40;9.65;;;7.63;;
27213;SDS011;14723;55.814;37.460;2023-07-30T03:21:46;10.65;;;7.97;;
27213;SDS011;14723;55.814;37.460;2023-07-30T03:24:51;11.25;;;7.70;;
27213;SDS011;14723;55.814;37.460;2023-07-30T03:27:59;9.45;;;6.88;;
27213;SDS011;14723;55.814;37.460;2023-07-30T03:31:05;9.13;;;7.30;;
27213;SDS011;14723;55.814;37.460;2023-07-30T03:34:10;9.65;;;7.22;;
27213;SDS011;14723;55.814;37.460;2023-07-30T03:37:15;12.65;;;6.75;;
27213;SDS011;14723;55.814;37.460;2023-07-30T03:40:21;8.52;;;6.30;;
27213;SDS011;14723;55.814;37.460;2023-07-30T03:43:29;9.95;;;6.63;;
27213;SDS011;14723;55.814;37.460;2023-07-30T03:46:34;9.68;;;6.47;;
27213;SDS011;14723;55.814;37.460;2023-07-30T03:49:40;10.68;;;6.43;;
27213;SDS011;14723;55.814;37.460;2023-07-30T03:52:45;18.08;;;6.50;;
27213;SDS011;14723;55.814;37.460;2023-07-30T03:55:51;8.55;;;6.70;;
27213;SDS011;14723;55.814;37.460;2023-07-30T03:58:59;11.18;;;6.25;;
27213;SDS011;14723;55.814;37.460;2023-07-30T04:02:04;8.95;;;6.57;;
27213;SDS011;14723;55.814;37.460;2023-07-30T04:05:10;8.25;;;5.72;;
27213;SDS011;14723;55.814;37.460;2023-07-30T04:08:15;8.65;;;5.80;;
27213;SDS011;14723;55.814;37.460;2023-07-30T04:11:21;9.10;;;5.45;;
27213;SDS011;14723;55.814;37.460;2023-07-30T04:14:28;8.57;;;5.45;;
27213;SDS011;14723;55.814;37.460;2023-07-30T04:17:34;8.45;;;5.10;;
27213;SDS011;14723;55.814;37.460;2023-07-30T04:20:40;9.88;;;4.82;;
27213;SDS011;14723;55.814;37.460;2023-07-30T04:23:45;8.63;;;5.20;;
27213;SDS011;14723;55.814;37.460;2023-07-30T04:26:50;9.40;;;4.90;;
27213;SDS011;14723;55.814;37.460;2023-07-30T04:29:59;6.10;;;4.25;;
27213;SDS011;14723;55.814;37.460;2023-07-30T04:33:04;9.20;;;5.40;;
27213;SDS011;14723;55.814;37.460;2023-07-30T04:36:12;8.80;;;5.27;;
27213;SDS011;14723;55.814;37.460;2023-07-30T04:39:19;10.85;;;5.20;;
27213;SDS011;14723;55.814;37.460;2023-07-30T04:42:24;11.93;;;5.70;;
27213;SDS011;14723;55.814;37.460;2023-07-30T04:45:32;13.85;;;5.70;;
27213;SDS011;14723;55.814;37.460;2023-07-30T04:51:44;7.10;;;5.03;;
27213;SDS011;14723;55.814;37.460;2023-07-30T04:54:50;8.60;;;5.03;;
27213;SDS011;14723;55.814;37.460;2023-07-30T04:57:56;11.07;;;4.82;;
27213;SDS011;14723;55.814;37.460;2023-07-30T05:01:04;6.35;;;3.97;;
27213;SDS011;14723;55.814;37.460;2023-07-30T05:04:09;8.35;;;4.18;;
27213;SDS011;14723;55.814;37.460;2023-07-30T05:07:15;11.38;;;4.07;;
27213;SDS011;14723;55.814;37.460;2023-07-30T05:10:20;5.85;;;3.58;;
27213;SDS011;14723;55.814;37.460;2023-07-30T05:13:25;7.78;;;4.50;;
27213;SDS011;14723;55.814;37.460;2023-07-30T05:16:33;8.65;;;4.50;;
27213;SDS011;14723;55.814;37.460;2023-07-30T05:19:40;4.45;;;3.50;;
27213;SDS011;14723;55.814;37.460;2023-07-30T05:22:45;5.78;;;3.72;;
27213;SDS011;14723;55.814;37.460;2023-07-30T05:25:50;7.78;;;3.95;;
27213;SDS011;14723;55.814;37.460;2023-07-30T05:28:56;5.40;;;4.15;;
27213;SDS011;14723;55.814;37.460;2023-07-30T05:32:04;8.20;;;4.30;;
27213;SDS011;14723;55.814;37.460;2023-07-30T05:38:14;8.60;;;3.97;;
27213;SDS011;14723;55.814;37.460;2023-07-30T05:41:20;7.15;;;4.20;;
27213;SDS011;14723;55.814;37.460;2023-07-30T05:44:26;6.50;;;3.78;;
27213;SDS011;14723;55.814;37.460;2023-07-30T05:47:34;7.00;;;3.60;;
27213;SDS011;14723;55.814;37.460;2023-07-30T05:53:45;5.00;;;4.13;;
27213;SDS011;14723;55.814;37.460;2023-07-30T05:56:50;8.45;;;3.60;;
27213;SDS011;14723;55.814;37.460;2023-07-30T05:59:56;4.60;;;3.70;;
27213;SDS011;14723;55.814;37.460;2023-07-30T06:03:04;4.90;;;3.63;;
27213;SDS011;14723;55.814;37.460;2023-07-30T06:06:11;5.93;;;3.90;;
27213;SDS011;14723;55.814;37.460;2023-07-30T06:09:16;6.03;;;3.88;;
27213;SDS011;14723;55.814;37.460;2023-07-30T06:12:22;4.20;;;3.10;;
27213;SDS011;14723;55.814;37.460;2023-07-30T06:15:27;7.43;;;3.42;;
27213;SDS011;14723;55.814;37.460;2023-07-30T06:18:35;6.88;;;3.65;;
27213;SDS011;14723;55.814;37.460;2023-07-30T06:21:40;6.28;;;3.88;;
27213;SDS011;14723;55.814;37.460;2023-07-30T06:24:46;4.05;;;3.65;;
27213;SDS011;14723;55.814;37.460;2023-07-30T06:27:51;5.68;;;3.47;;
27213;SDS011;14723;55.814;37.460;2023-07-30T06:30:59;5.80;;;3.70;;
27213;SDS011;14723;55.814;37.460;2023-07-30T06:34:07;6.13;;;3.97;;
27213;SDS011;14723;55.814;37.460;2023-07-30T06:37:12;5.35;;;3.75;;
27213;SDS011;14723;55.814;37.460;2023-07-30T06:40:18;8.40;;;3.63;;
27213;SDS011;14723;55.814;37.460;2023-07-30T06:43:23;5.50;;;3.17;;
27213;SDS011;14723;55.814;37.460;2023-07-30T06:46:29;4.75;;;3.65;;
27213;SDS011;14723;55.814;37.460;2023-07-30T06:49:37;4.15;;;3.22;;
27213;SDS011;14723;55.814;37.460;2023-07-30T06:52:42;5.05;;;3.40;;
27213;SDS011;14723;55.814;37.460;2023-07-30T06:55:47;7.28;;;3.40;;
27213;SDS011;14723;55.814;37.460;2023-07-30T06:58:53;4.97;;;3.10;;
27213;SDS011;14723;55.814;37.460;2023-07-30T07:01:59;9.55;;;3.60;;
27213;SDS011;14723;55.814;37.460;2023-07-30T07:05:07;4.90;;;3.42;;
27213;SDS011;14723;55.814;37.460;2023-07-30T07:08:13;4.13;;;3.20;;
27213;SDS011;14723;55.814;37.460;2023-07-30T07:11:18;4.22;;;2.80;;
27213;SDS011;14723;55.814;37.460;2023-07-30T07:14:23;3.97;;;2.88;;
27213;SDS011;14723;55.814;37.460;2023-07-30T07:17:28;3.78;;;2.65;;
27213;SDS011;14723;55.814;37.460;2023-07-30T07:20:37;5.38;;;3.05;;
27213;SDS011;14723;55.814;37.460;2023-07-30T07:23:42;4.88;;;3.10;;
27213;SDS011;14723;55.814;37.460;2023-07-30T07:26:48;7.75;;;3.25;;
27213;SDS011;14723;55.814;37.460;2023-07-30T07:29:53;3.90;;;2.40;;
27213;SDS011;14723;55.814;37.460;2023-07-30T07:32:59;5.00;;;3.03;;
27213;SDS011;14723;55.814;37.460;2023-07-30T07:36:07;4.20;;;2.83;;
27213;SDS011;14723;55.814;37.460;2023-07-30T07:39:13;6.25;;;2.70;;
27213;SDS011;14723;55.814;37.460;2023-07-30T07:42:19;5.53;;;2.53;;
27213;SDS011;14723;55.814;37.460;2023-07-30T07:45:24;5.85;;;3.33;;
27213;SDS011;14723;55.814;37.460;2023-07-30T07:48:30;4.80;;;2.65;;
27213;SDS011;14723;55.814;37.460;2023-07-30T07:51:38;7.20;;;3.08;;
27213;SDS011;14723;55.814;37.460;2023-07-30T07:54:43;5.97;;;2.85;;
27213;SDS011;14723;55.814;37.460;2023-07-30T07:57:49;4.35;;;2.70;;
27213;SDS011;14723;55.814;37.460;2023-07-30T08:00:54;5.07;;;2.92;;
27213;SDS011;14723;55.814;37.460;2023-07-30T08:03:59;4.30;;;2.65;;
27213;SDS011;14723;55.814;37.460;2023-07-30T08:07:07;3.50;;;2.63;;
27213;SDS011;14723;55.814;37.460;2023-07-30T08:10:13;7.00;;;2.80;;
27213;SDS011;14723;55.814;37.460;2023-07-30T08:13:20;5.10;;;2.90;;
27213;SDS011;14723;55.814;37.460;2023-07-30T08:16:25;2.80;;;2.17;;
27213;SDS011;14723;55.814;37.460;2023-07-30T08:19:30;6.60;;;2.80;;
27213;SDS011;14723;55.814;37.460;2023-07-30T08:22:39;5.20;;;2.63;;
27213;SDS011;14723;55.814;37.460;2023-07-30T08:25:44;10.18;;;3.10;;
27213;SDS011;14723;55.814;37.460;2023-07-30T08:28:55;5.30;;;2.60;;
27213;SDS011;14723;55.814;37.460;2023-07-30T08:32:00;6.47;;;2.50;;
27213;SDS011;14723;55.814;37.460;2023-07-30T08:35:06;5.93;;;2.55;;
27213;SDS011;14723;55.814;37.460;2023-07-30T08:38:16;2.80;;;2.40;;
27213;SDS011;14723;55.814;37.460;2023-07-30T08:44:26;3.65;;;2.42;;
27213;SDS011;14723;55.814;37.460;2023-07-30T08:47:31;7.05;;;2.20;;
27213;SDS011;14723;55.814;37.460;2023-07-30T08:50:37;5.82;;;3.10;;
27213;SDS011;14723;55.814;37.460;2023-07-30T08:53:45;4.65;;;2.30;;
27213;SDS011;14723;55.814;37.460;2023-07-30T08:56:51;6.50;;;2.33;;
27213;SDS011;14723;55.814;37.460;2023-07-30T08:59:59;4.63;;;2.53;;
27213;SDS011;14723;55.814;37.460;2023-07-30T09:03:05;4.70;;;2.35;;
27213;SDS011;14723;55.814;37.460;2023-07-30T09:06:12;3.65;;;2.15;;
27213;SDS011;14723;55.814;37.460;2023-07-30T09:09:19;4.32;;;2.50;;
27213;SDS011;14723;55.814;37.460;2023-07-30T09:12:31;5.97;;;2.40;;
27213;SDS011;14723;55.814;37.460;2023-07-30T09:15:37;2.97;;;2.30;;
27213;SDS011;14723;55.814;37.460;2023-07-30T09:18:43;4.25;;;2.38;;
27213;SDS011;14723;55.814;37.460;2023-07-30T09:21:53;3.10;;;2.38;;
27213;SDS011;14723;55.814;37.460;2023-07-30T09:25:02;3.03;;;2.20;;
27213;SDS011;14723;55.814;37.460;2023-07-30T09:28:07;4.85;;;2.40;;
27213;SDS011;14723;55.814;37.460;2023-07-30T09:31:13;4.68;;;2.53;;
27213;SDS011;14723;55.814;37.460;2023-07-30T09:34:24;2.83;;;2.05;;
27213;SDS011;14723;55.814;37.460;2023-07-30T09:37:30;3.65;;;2.22;;
27213;SDS011;14723;55.814;37.460;2023-07-30T09:40:38;3.83;;;2.20;;
27213;SDS011;14723;55.814;37.460;2023-07-30T09:43:45;3.17;;;2.30;;
27213;SDS011;14723;55.814;37.460;2023-07-30T09:46:51;3.97;;;2.13;;
27213;SDS011;14723;55.814;37.460;2023-07-30T09:49:56;5.35;;;2.50;;
27213;SDS011;14723;55.814;37.460;2023-07-30T09:53:02;5.65;;;2.50;;
27213;SDS011;14723;55.814;37.460;2023-07-30T09:56:11;3.65;;;2.40;;
27213;SDS011;14723;55.814;37.460;2023-07-30T09:59:16;5.03;;;2.35;;
27213;SDS011;14723;55.814;37.460;2023-07-30T10:02:23;3.92;;;2.40;;
27213;SDS011;14723;55.814;37.460;2023-07-30T10:05:31;5.03;;;2.70;;
27213;SDS011;14723;55.814;37.460;2023-07-30T10:08:38;2.83;;;2.40;;
27213;SDS011;14723;55.814;37.460;2023-07-30T10:11:47;3.28;;;2.35;;
27213;SDS011;14723;55.814;37.460;2023-07-30T10:14:55;3.72;;;2.13;;
27213;SDS011;14723;55.814;37.460;2023-07-30T10:18:01;4.03;;;2.10;;
27213;SDS011;14723;55.814;37.460;2023-07-30T10:21:07;6.72;;;2.40;;
27213;SDS011;14723;55.814;37.460;2023-07-30T10:24:12;4.25;;;2.38;;
27213;SDS011;14723;55.814;37.460;2023-07-30T10:27:22;2.53;;;2.28;;
27213;SDS011;14723;55.814;37.460;2023-07-30T10:30:30;2.78;;;1.83;;
27213;SDS011;14723;55.814;37.460;2023-07-30T10:36:42;4.65;;;2.08;;
27213;SDS011;14723;55.814;37.460;2023-07-30T10:39:48;4.07;;;2.08;;
27213;SDS011;14723;55.814;37.460;2023-07-30T10:42:56;5.72;;;2.70;;
27213;SDS011;14723;55.814;37.460;2023-07-30T10:49:06;6.85;;;2.38;;
27213;SDS011;14723;55.814;37.460;2023-07-30T10:52:14;15.33;;;2.67;;
27213;SDS011;14723;55.814;37.460;2023-07-30T10:55:20;4.65;;;2.20;;
27213;SDS011;14723;55.814;37.460;2023-07-30T10:58:28;4.47;;;2.50;;
27213;SDS011;14723;55.814;37.460;2023-07-30T11:01:37;5.95;;;2.33;;
27213;SDS011;14723;55.814;37.460;2023-07-30T11:04:43;2.45;;;2.25;;
27213;SDS011;14723;55.814;37.460;2023-07-30T11:07:49;3.15;;;2.20;;
27213;SDS011;14723;55.814;37.460;2023-07-30T11:10:55;2.72;;;2.25;;
27213;SDS011;14723;55.814;37.460;2023-07-30T11:14:02;4.07;;;2.22;;
27213;SDS011;14723;55.814;37.460;2023-07-30T11:17:09;1.98;;;1.77;;
27213;SDS011;14723;55.814;37.460;2023-07-30T11:20:23;5.15;;;2.58;;
27213;SDS011;14723;55.814;37.460;2023-07-30T11:23:29;4.88;;;2.33;;
27213;SDS011;14723;55.814;37.460;2023-07-30T11:26:34;3.70;;;2.10;;
27213;SDS011;14723;55.814;37.460;2023-07-30T11:29:42;2.67;;;2.08;;
27213;SDS011;14723;55.814;37.460;2023-07-30T11:32:58;2.78;;;2.42;;
27213;SDS011;14723;55.814;37.460;2023-07-30T11:36:04;4.47;;;2.33;;
27213;SDS011;14723;55.814;37.460;2023-07-30T11:39:11;2.70;;;1.90;;
27213;SDS011;14723;55.814;37.460;2023-07-30T11:42:16;5.45;;;2.50;;
27213;SDS011;14723;55.814;37.460;2023-07-30T11:45:25;3.78;;;2.45;;
27213;SDS011;14723;55.814;37.460;2023-07-30T11:48:30;4.82;;;2.80;;
27213;SDS011;14723;55.814;37.460;2023-07-30T11:51:35;3.13;;;2.42;;
27213;SDS011;14723;55.814;37.460;2023-07-30T11:54:41;5.35;;;1.85;;
27213;SDS011;14723;55.814;37.460;2023-07-30T11:57:46;2.75;;;2.38;;
27213;SDS011;14723;55.814;37.460;2023-07-30T12:00:56;3.67;;;2.20;;
27213;SDS011;14723;55.814;37.460;2023-07-30T12:04:02;4.60;;;2.17;;
27213;SDS011;14723;55.814;37.460;2023-07-30T12:07:07;5.28;;;2.10;;
27213;SDS011;14723;55.814;37.460;2023-07-30T12:10:14;2.33;;;2.10;;
27213;SDS011;14723;55.814;37.460;2023-07-30T12:13:22;3.55;;;2.30;;
27213;SDS011;14723;55.814;37.460;2023-07-30T12:16:30;2.65;;;1.77;;
27213;SDS011;14723;55.814;37.460;2023-07-30T12:19:35;3.30;;;2.95;;
27213;SDS011;14723;55.814;37.460;2023-07-30T12:22:43;4.13;;;1.85;;
27213;SDS011;14723;55.814;37.460;2023-07-30T12:25:48;3.63;;;1.70;;
27213;SDS011;14723;55.814;37.460;2023-07-30T12:28:53;2.70;;;2.05;;
27213;SDS011;14723;55.814;37.460;2023-07-30T12:32:02;2.42;;;1.75;;
27213;SDS011;14723;55.814;37.460;2023-07-30T12:35:07;1.95;;;1.80;;
27213;SDS011;14723;55.814;37.460;2023-07-30T12:38:13;3.17;;;2.05;;
27213;SDS011;14723;55.814;37.460;2023-07-30T12:41:19;3.80;;;1.90;;
27213;SDS011;14723;55.814;37.460;2023-07-30T12:44:28;4.22;;;1.88;;
27213;SDS011;14723;55.814;37.460;2023-07-30T12:47:36;4.72;;;2.10;;
27213;SDS011;14723;55.814;37.460;2023-07-30T12:50:41;6.65;;;2.50;;
27213;SDS011;14723;55.814;37.460;2023-07-30T12:53:46;4.95;;;2.40;;
27213;SDS011;14723;55.814;37.460;2023-07-30T12:56:52;7.68;;;2.28;;
27213;SDS011;14723;55.814;37.460;2023-07-30T12:59:57;6.65;;;2.28;;
27213;SDS011;14723;55.814;37.460;2023-07-30T13:03:07;4.15;;;2.78;;
27213;SDS011;14723;55.814;37.460;2023-07-30T13:06:12;3.22;;;2.10;;
27213;SDS011;14723;55.814;37.460;2023-07-30T13:09:17;3.13;;;1.90;;
27213;SDS011;14723;55.814;37.460;2023-07-30T13:12:23;1.57;;;1.47;;
27213;SDS011;14723;55.814;37.460;2023-07-30T13:15:29;2.47;;;2.22;;
27213;SDS011;14723;55.814;37.460;2023-07-30T13:18:37;1.83;;;1.73;;
27213;SDS011;14723;55.814;37.460;2023-07-30T13:21:42;4.88;;;2.20;;
27213;SDS011;14723;55.814;37.460;2023-07-30T13:24:48;2.60;;;2.20;;
27213;SDS011;14723;55.814;37.460;2023-07-30T13:27:53;3.97;;;1.90;;
27213;SDS011;14723;55.814;37.460;2023-07-30T13:30:58;4.60;;;3.45;;
27213;SDS011;14723;55.814;37.460;2023-07-30T13:34:06;3.45;;;2.25;;
27213;SDS011;14723;55.814;37.460;2023-07-30T13:37:12;5.68;;;2.63;;
27213;SDS011;14723;55.814;37.460;2023-07-30T13:40:18;4.13;;;2.15;;
27213;SDS011;14723;55.814;37.460;2023-07-30T13:43:24;2.83;;;2.22;;
27213;SDS011;14723;55.814;37.460;2023-07-30T13:46:29;3.47;;;2.00;;
27213;SDS011;14723;55.814;37.460;2023-07-30T13:49:37;3.28;;;1.70;;
27213;SDS011;14723;55.814;37.460;2023-07-30T13:52:43;4.50;;;2.20;;
27213;SDS011;14723;55.814;37.460;2023-07-30T13:55:49;3.28;;;2.20;;
27213;SDS011;14723;55.814;37.460;2023-07-30T13:58:54;4.90;;;2.25;;
27213;SDS011;14723;55.814;37.460;2023-07-30T14:01:59;3.75;;;2.17;;
27213;SDS011;14723;55.814;37.460;2023-07-30T14:05:08;2.65;;;2.40;;
27213;SDS011;14723;55.814;37.460;2023-07-30T14:08:13;5.57;;;2.60;;
27213;SDS011;14723;55.814;37.460;2023-07-30T14:11:20;5.40;;;2.38;;
27213;SDS011;14723;55.814;37.460;2023-07-30T14:14:25;6.88;;;2.30;;
27213;SDS011;14723;55.814;37.460;2023-07-30T14:17:31;3.13;;;2.10;;
27213;SDS011;14723;55.814;37.460;2023-07-30T14:20:39;4.15;;;2.17;;
27213;SDS011;14723;55.814;37.460;2023-07-30T14:23:45;3.42;;;1.60;;
27213;SDS011;14723;55.814;37.460;2023-07-30T14:26:51;3.72;;;2.10;;
27213;SDS011;14723;55.814;37.460;2023-07-30T14:29:56;2.60;;;1.80;;
27213;SDS011;14723;55.814;37.460;2023-07-30T14:33:02;4.25;;;2.10;;
27213;SDS011;14723;55.814;37.460;2023-07-30T14:36:10;3.92;;;2.00;;
27213;SDS011;14723;55.814;37.460;2023-07-30T14:39:16;2.85;;;1.73;;
27213;SDS011;14723;55.814;37.460;2023-07-30T14:42:22;2.10;;;1.90;;
27213;SDS011;14723;55.814;37.460;2023-07-30T14:45:27;2.80;;;1.80;;
27213;SDS011;14723;55.814;37.460;2023-07-30T14:48:32;4.00;;;1.70;;
27213;SDS011;14723;55.814;37.460;2023-07-30T14:51:40;2.03;;;1.70;;
27213;SDS011;14723;55.814;37.460;2023-07-30T14:57:50;3.58;;;1.60;;
27213;SDS011;14723;55.814;37.460;2023-07-30T15:00:55;4.07;;;2.20;;
27213;SDS011;14723;55.814;37.460;2023-07-30T15:04:01;4.25;;;1.75;;
27213;SDS011;14723;55.814;37.460;2023-07-30T15:07:10;2.13;;;1.65;;
27213;SDS011;14723;55.814;37.460;2023-07-30T15:10:15;2.58;;;1.40;;
27213;SDS011;14723;55.814;37.460;2023-07-30T15:13:21;3.22;;;1.70;;
27213;SDS011;14723;55.814;37.460;2023-07-30T15:16:29;2.05;;;1.55;;
27213;SDS011;14723;55.814;37.460;2023-07-30T15:19:34;3.45;;;1.58;;
27213;SDS011;14723;55.814;37.460;2023-07-30T15:22:42;2.22;;;2.03;;
27213;SDS011;14723;55.814;37.460;2023-07-30T15:25:48;3.67;;;1.67;;
27213;SDS011;14723;55.814;37.460;2023-07-30T15:28:54;3.08;;;1.80;;
27213;SDS011;14723;55.814;37.460;2023-07-30T15:32:01;3.78;;;1.77;;
27213;SDS011;14723;55.814;37.460;2023-07-30T15:35:07;9.75;;;1.98;;
27213;SDS011;14723;55.814;37.460;2023-07-30T15:38:15;4.43;;;1.60;;
27213;SDS011;14723;55.814;37.460;2023-07-30T15:44:26;2.92;;;1.85;;
27213;SDS011;14723;55.814;37.460;2023-07-30T15:47:31;4.93;;;2.10;;
27213;SDS011;14723;55.814;37.460;2023-07-30T15:50:36;2.53;;;1.75;;
27213;SDS011;14723;55.814;37.460;2023-07-30T15:53:44;2.22;;;1.55;;
27213;SDS011;14723;55.814;37.460;2023-07-30T15:59:55;2.45;;;1.73;;
27213;SDS011;14723;55.814;37.460;2023-07-30T16:03:01;2.35;;;1.80;;
27213;SDS011;14723;55.814;37.460;2023-07-30T16:06:09;3.22;;;2.30;;
27213;SDS011;14723;55.814;37.460;2023-07-30T16:09:17;2.85;;;2.05;;
27213;SDS011;14723;55.814;37.460;2023-07-30T16:12:23;2.45;;;2.25;;
27213;SDS011;14723;55.814;37.460;2023-07-30T16:15:28;3.75;;;2.08;;
27213;SDS011;14723;55.814;37.460;2023-07-30T16:18:34;3.20;;;1.50;;
27213;SDS011;14723;55.814;37.460;2023-07-30T16:21:40;2.35;;;1.58;;
27213;SDS011;14723;55.814;37.460;2023-07-30T16:24:52;4.28;;;2.15;;
27213;SDS011;14723;55.814;37.460;2023-07-30T16:31:03;3.13;;;1.70;;
27213;SDS011;14723;55.814;37.460;2023-07-30T16:34:09;3.08;;;1.80;;
27213;SDS011;14723;55.814;37.460;2023-07-30T16:37:14;2.15;;;1.60;;
27213;SDS011;14723;55.814;37.460;2023-07-30T16:40:23;2.45;;;1.63;;
27213;SDS011;14723;55.814;37.460;2023-07-30T16:43:28;6.60;;;2.00;;
27213;SDS011;14723;55.814;37.460;2023-07-30T16:46:34;3.80;;;2.42;;
27213;SDS011;14723;55.814;37.460;2023-07-30T16:49:39;4.22;;;1.75;;
27213;SDS011;14723;55.814;37.460;2023-07-30T16:52:45;4.10;;;2.08;;
27213;SDS011;14723;55.814;37.460;2023-07-30T16:55:53;2.47;;;1.80;;
27213;SDS011;14723;55.814;37.460;2023-07-30T16:58:58;2.33;;;1.80;;
27213;SDS011;14723;55.814;37.460;2023-07-30T17:02:04;3.80;;;1.95;;
27213;SDS011;14723;55.814;37.460;2023-07-30T17:05:09;4.40;;;2.38;;
27213;SDS011;14723;55.814;37.460;2023-07-30T17:08:14;4.82;;;2.20;;
27213;SDS011;14723;55.814;37.460;2023-07-30T17:11:23;5.70;;;2.20;;
27213;SDS011;14723;55.814;37.460;2023-07-30T17:14:29;3.45;;;2.03;;
27213;SDS011;14723;55.814;37.460;2023-07-30T17:17:34;4.68;;;2.28;;
27213;SDS011;14723;55.814;37.460;2023-07-30T17:20:40;3.03;;;2.10;;
27213;SDS011;14723;55.814;37.460;2023-07-30T17:23:45;3.38;;;2.45;;
27213;SDS011;14723;55.814;37.460;2023-07-30T17:26:53;3.38;;;2.28;;
27213;SDS011;14723;55.814;37.460;2023-07-30T17:29:59;4.72;;;2.08;;
27213;SDS011;14723;55.814;37.460;2023-07-30T17:33:05;2.80;;;2.20;;
27213;SDS011;14723;55.814;37.460;2023-07-30T17:36:10;4.55;;;2.85;;
27213;SDS011;14723;55.814;37.460;2023-07-30T17:39:16;8.65;;;3.55;;
27213;SDS011;14723;55.814;37.460;2023-07-30T17:42:24;5.97;;;2.58;;
27213;SDS011;14723;55.814;37.460;2023-07-30T17:45:30;5.57;;;2.80;;
27213;SDS011;14723;55.814;37.460;2023-07-30T17:48:35;6.43;;;2.67;;
27213;SDS011;14723;55.814;37.460;2023-07-30T17:51:40;4.75;;;2.67;;
27213;SDS011;14723;55.814;37.460;2023-07-30T17:54:47;3.00;;;2.67;;
27213;SDS011;14723;55.814;37.460;2023-07-30T17:57:55;5.03;;;3.47;;
27213;SDS011;14723;55.814;37.460;2023-07-30T18:01:01;5.18;;;3.20;;
27213;SDS011;14723;55.814;37.460;2023-07-30T18:04:06;3.53;;;2.80;;
27213;SDS011;14723;55.814;37.460;2023-07-30T18:07:12;4.70;;;2.92;;
27213;SDS011;14723;55.814;37.460;2023-07-30T18:10:17;4.93;;;3.17;;
27213;SDS011;14723;55.814;37.460;2023-07-30T18:13:25;6.05;;;3.13;;
27213;SDS011;14723;55.814;37.460;2023-07-30T18:16:31;7.90;;;3.70;;
27213;SDS011;14723;55.814;37.460;2023-07-30T18:19:36;7.55;;;3.88;;
27213;SDS011;14723;55.814;37.460;2023-07-30T18:22:42;6.97;;;4.28;;
27213;SDS011;14723;55.814;37.460;2023-07-30T18:25:47;6.43;;;3.70;;
27213;SDS011;14723;55.814;37.460;2023-07-30T18:28:55;13.48;;;4.32;;
27213;SDS011;14723;55.814;37.460;2023-07-30T18:32:06;5.53;;;3.50;;
27213;SDS011;14723;55.814;37.460;2023-07-30T18:35:12;7.57;;;4.07;;
27213;SDS011;14723;55.814;37.460;2023-07-30T18:38:18;8.27;;;4.13;;
27213;SDS011;14723;55.814;37.460;2023-07-30T18:41:23;6.60;;;3.78;;
27213;SDS011;14723;55.814;37.460;2023-07-30T18:44:31;6.35;;;4.18;;
27213;SDS011;14723;55.814;37.460;2023-07-30T18:47:37;9.70;;;3.95;;
27213;SDS011;14723;55.814;37.460;2023-07-30T18:50:42;9.85;;;4.22;;
27213;SDS011;14723;55.814;37.460;2023-07-30T18:53:47;8.25;;;4.68;;
27213;SDS011;14723;55.814;37.460;2023-07-30T18:56:52;6.38;;;4.45;;